Time;durP1;ratioP1;P1;durP2;ratioP2;P2;SDS_P1;SDS_P2;PMS_P1;PMS_P2;Temp;Humidity;BMP_temperature;BMP_pressure;BME280_temperature;BME280_humidity;BME280_pressure;Samples;Min_cycle;Max_cycle;Signal;HPM_P1;HPM_P2
2022/09/28 00:00:28;;;;;;;11.82;6.18;;;8.30;99.90;;;;;;5051169;28;20043;-55
2022/09/28 00:02:57;;;;;;;12.00;6.07;;;8.20;99.90;;;;;;5050826;28;20033;-58
2022/09/28 00:05:25;;;;;;;10.68;6.30;;;8.10;99.90;;;;;;5050422;28;20017;-54
2022/09/28 00:07:55;;;;;;;11.75;6.30;;;8.10;99.90;;;;;;5050200;28;20025;-58
2022/09/28 00:10:24;;;;;;;10.75;6.05;;;8.00;99.90;;;;;;5050417;28;20025;-53
2022/09/28 00:12:50;;;;;;;12.00;6.38;;;8.00;99.90;;;;;;5050856;28;20071;-62
2022/09/28 00:15:16;;;;;;;9.95;6.22;;;7.90;99.90;;;;;;5049443;28;20021;-56
2022/09/28 00:17:45;;;;;;;8.60;4.95;;;7.90;99.90;;;;;;5050999;28;20013;-58
2022/09/28 00:20:11;;;;;;;9.70;5.40;;;7.80;99.90;;;;;;5050260;28;20036;-60
2022/09/28 00:22:37;;;;;;;10.07;5.93;;;7.70;99.90;;;;;;5050232;28;20048;-58
2022/09/28 00:25:03;;;;;;;9.73;5.72;;;7.70;99.90;;;;;;5050678;28;20017;-57
2022/09/28 00:27:29;;;;;;;11.45;6.18;;;7.60;99.90;;;;;;5050404;28;20485;-55
2022/09/28 00:29:54;;;;;;;10.23;6.00;;;7.60;99.90;;;;;;5049989;28;20035;-56
2022/09/28 00:32:23;;;;;;;8.55;5.70;;;7.50;99.90;;;;;;5053222;28;20065;-55
2022/09/28 00:34:50;;;;;;;12.13;6.88;;;7.50;99.90;;;;;;5054456;28;20385;-59
2022/09/28 00:37:17;;;;;;;10.55;6.05;;;7.40;99.90;;;;;;5053345;28;20052;-66
2022/09/28 00:39:44;;;;;;;11.75;6.93;;;7.40;99.90;;;;;;5053526;28;20389;-54
2022/09/28 00:42:13;;;;;;;11.75;6.25;;;7.40;99.90;;;;;;5054468;28;20422;-66
2022/09/28 00:44:46;;;;;;;11.15;6.18;;;7.40;99.90;;;;;;5057151;28;20032;-63
2022/09/28 00:47:20;;;;;;;11.80;6.10;;;7.40;99.90;;;;;;5053542;28;20029;-56
2022/09/28 00:50:00;;;;;;;11.45;6.20;;;7.40;99.90;;;;;;5054536;28;20103;-59
2022/09/28 00:52:46;;;;;;;10.63;6.05;;;7.40;99.90;;;;;;5054239;28;20029;-60
2022/09/28 00:55:24;;;;;;;11.60;6.18;;;7.40;99.90;;;;;;5053625;28;20033;-56
2022/09/28 00:57:54;;;;;;;9.82;6.00;;;7.50;99.90;;;;;;5053935;28;20021;-54
2022/09/28 01:00:23;;;;;;;10.98;6.15;;;7.50;99.90;;;;;;5053892;28;20033;-58
2022/09/28 01:02:50;;;;;;;11.32;7.03;;;7.50;99.90;;;;;;5052661;28;20474;-59
2022/09/28 01:05:17;;;;;;;13.77;7.10;;;7.60;99.90;;;;;;5052675;28;20082;-66
2022/09/28 01:07:45;;;;;;;14.95;7.55;;;7.70;99.90;;;;;;5053801;28;20032;-57
2022/09/28 01:10:12;;;;;;;13.73;7.57;;;7.70;99.90;;;;;;5052571;28;20025;-65
2022/09/28 01:12:37;;;;;;;12.98;7.60;;;7.80;99.90;;;;;;5052891;28;20029;-55
2022/09/28 01:15:05;;;;;;;11.85;6.78;;;7.80;99.90;;;;;;5053459;28;20385;-66
2022/09/28 01:17:55;;;;;;;14.07;8.32;;;7.80;99.90;;;;;;5053426;28;20040;-55
2022/09/28 01:20:27;;;;;;;14.68;8.75;;;7.90;99.90;;;;;;5052703;28;20036;-56
2022/09/28 01:23:17;;;;;;;15.77;7.97;;;8.00;99.90;;;;;;5053464;28;20478;-58
2022/09/28 01:26:21;;;;;;;13.45;7.43;;;8.00;99.90;;;;;;5052892;28;20498;-56
2022/09/28 01:28:52;;;;;;;12.93;7.53;;;8.10;99.90;;;;;;5053259;28;20048;-56
2022/09/28 01:31:25;;;;;;;13.82;7.80;;;8.10;99.90;;;;;;5052615;28;20469;-56
2022/09/28 01:34:00;;;;;;;15.00;7.78;;;8.00;99.90;;;;;;5052589;28;20420;-51
2022/09/28 01:36:35;;;;;;;14.60;8.18;;;8.10;99.90;;;;;;5052802;28;20397;-53
2022/09/28 01:39:12;;;;;;;12.68;8.00;;;8.10;99.90;;;;;;5052636;28;20111;-59
2022/09/28 01:41:41;;;;;;;13.95;8.73;;;8.20;99.90;;;;;;5053116;28;20029;-56
2022/09/28 01:44:14;;;;;;;14.20;7.55;;;8.20;99.90;;;;;;5052069;28;20445;-55
2022/09/28 01:46:47;;;;;;;13.02;7.63;;;8.20;99.90;;;;;;5052730;28;20021;-54
2022/09/28 01:49:29;;;;;;;14.80;8.35;;;8.20;99.90;;;;;;5052590;28;20044;-53
2022/09/28 01:52:08;;;;;;;14.95;8.48;;;8.20;99.90;;;;;;5052912;28;20496;-51
2022/09/28 01:54:57;;;;;;;16.17;8.50;;;8.10;99.90;;;;;;5051656;28;20148;-53
2022/09/28 01:57:44;;;;;;;12.57;7.10;;;8.20;99.90;;;;;;5051695;28;20387;-53
2022/09/28 02:00:13;;;;;;;14.07;8.13;;;8.10;99.90;;;;;;5052291;28;20031;-56
2022/09/28 02:02:47;;;;;;;15.07;8.30;;;8.20;99.90;;;;;;5052793;28;20444;-54
2022/09/28 02:05:21;;;;;;;13.63;7.30;;;8.20;99.90;;;;;;5052421;28;20059;-56
2022/09/28 02:07:54;;;;;;;14.65;7.55;;;8.30;99.90;;;;;;5053674;28;20017;-56
2022/09/28 02:10:29;;;;;;;16.10;7.97;;;8.30;99.90;;;;;;5053752;28;20136;-59
2022/09/28 02:13:07;;;;;;;17.65;7.30;;;8.40;99.90;;;;;;5053245;28;20029;-63
2022/09/28 02:15:39;;;;;;;14.85;8.05;;;8.40;99.90;;;;;;5051110;28;20021;-65
2022/09/28 02:18:05;;;;;;;17.42;7.68;;;8.40;99.90;;;;;;5052770;28;20021;-54
2022/09/28 02:20:33;;;;;;;13.45;7.53;;;8.40;99.90;;;;;;5052505;28;20053;-63
2022/09/28 02:23:02;;;;;;;13.45;7.18;;;8.30;99.90;;;;;;5051283;28;20385;-58
2022/09/28 02:25:44;;;;;;;13.52;7.22;;;8.30;99.90;;;;;;5051658;28;20540;-63
2022/09/28 02:28:14;;;;;;;12.63;7.15;;;8.20;99.90;;;;;;5052029;28;20473;-56
2022/09/28 02:30:43;;;;;;;13.60;7.35;;;8.20;99.90;;;;;;5052034;28;20033;-66
2022/09/28 02:33:25;;;;;;;12.43;7.10;;;8.10;99.90;;;;;;5052196;28;20669;-55
2022/09/28 02:35:51;;;;;;;16.13;7.47;;;8.10;99.90;;;;;;5051373;28;20017;-56
2022/09/28 02:38:17;;;;;;;13.07;7.40;;;8.10;99.90;;;;;;5051521;28;20094;-54
2022/09/28 02:40:49;;;;;;;12.45;6.65;;;8.00;99.90;;;;;;5051906;28;20017;-51
2022/09/28 02:43:22;;;;;;;12.95;7.25;;;8.00;99.90;;;;;;5051169;28;20029;-56
2022/09/28 02:46:10;;;;;;;12.00;6.15;;;7.90;99.90;;;;;;5052258;28;20174;-52
2022/09/28 02:49:02;;;;;;;12.93;6.70;;;7.90;99.90;;;;;;5054623;28;20031;-54
2022/09/28 02:51:45;;;;;;;14.43;7.20;;;7.90;99.90;;;;;;5033245;28;20033;-54
2022/09/28 02:54:23;;;;;;;15.43;6.63;;;7.90;99.90;;;;;;5035351;28;20041;-56
2022/09/28 02:57:04;;;;;;;13.00;6.75;;;8.00;99.90;;;;;;5051037;28;20454;-57
2022/09/28 02:59:41;;;;;;;;;;;8.00;99.90;;;;;;5051636;28;20035;-52
2022/09/28 03:02:19;;;;;;;12.38;6.82;;;8.00;99.90;;;;;;5051519;28;19904;-53
2022/09/28 03:05:12;;;;;;;13.05;6.35;;;8.00;99.90;;;;;;5050859;28;20538;-53
2022/09/28 03:07:49;;;;;;;13.73;7.15;;;8.00;99.90;;;;;;5054730;28;20087;-59
2022/09/28 03:10:22;;;;;;;11.43;6.35;;;8.00;99.90;;;;;;5050692;28;20477;-50
2022/09/28 03:12:50;;;;;;;15.13;7.18;;;8.00;99.90;;;;;;5047294;28;20076;-52
2022/09/28 03:15:27;;;;;;;15.48;7.25;;;8.10;99.90;;;;;;5049543;28;20013;-55
2022/09/28 03:17:53;;;;;;;14.90;7.03;;;8.10;99.90;;;;;;5050029;28;20151;-60
2022/09/28 03:20:19;;;;;;;12.35;6.75;;;8.10;99.90;;;;;;5050872;28;20524;-54
2022/09/28 03:22:44;;;;;;;13.23;7.53;;;8.10;99.90;;;;;;5051491;28;20021;-55
2022/09/28 03:25:10;;;;;;;13.20;6.80;;;8.20;99.90;;;;;;5050273;28;20469;-56
2022/09/28 03:27:36;;;;;;;15.65;6.75;;;8.20;99.90;;;;;;5051345;28;20032;-56
2022/09/28 03:30:03;;;;;;;13.68;7.18;;;8.20;99.90;;;;;;5051243;28;20017;-50
2022/09/28 03:32:28;;;;;;;14.30;7.43;;;8.20;99.90;;;;;;5050259;28;20044;-52
2022/09/28 03:34:54;;;;;;;13.70;6.75;;;8.20;99.90;;;;;;5051397;28;20526;-60
2022/09/28 03:37:20;;;;;;;12.57;7.63;;;8.30;99.90;;;;;;5050487;28;20029;-52
2022/09/28 03:39:46;;;;;;;13.68;6.75;;;8.30;99.90;;;;;;5050615;28;20028;-49
2022/09/28 03:42:11;;;;;;;14.45;7.30;;;8.30;99.90;;;;;;5050307;28;20025;-53
2022/09/28 03:44:37;;;;;;;13.57;7.03;;;8.30;99.90;;;;;;5051065;28;20025;-56
2022/09/28 03:47:02;;;;;;;12.40;6.75;;;8.30;99.90;;;;;;5050185;28;20032;-55
2022/09/28 03:49:28;;;;;;;16.95;8.10;;;8.30;99.90;;;;;;5050694;28;20380;-54
2022/09/28 03:51:54;;;;;;;12.20;7.60;;;8.30;99.90;;;;;;5050750;28;20547;-58
2022/09/28 03:54:19;;;;;;;12.20;7.05;;;8.30;99.90;;;;;;5049527;28;20056;-54
2022/09/28 03:56:45;;;;;;;12.15;6.32;;;8.30;99.90;;;;;;5051081;28;20017;-54
2022/09/28 03:59:10;;;;;;;15.73;7.57;;;8.30;99.90;;;;;;5050330;28;20025;-56
2022/09/28 04:01:36;;;;;;;12.45;7.60;;;8.30;99.90;;;;;;5050436;28;20025;-56
2022/09/28 04:04:01;;;;;;;15.27;7.15;;;8.30;99.90;;;;;;5050563;28;20493;-53
2022/09/28 04:06:27;;;;;;;13.60;7.45;;;8.30;99.90;;;;;;5053651;28;20021;-55
2022/09/28 04:08:53;;;;;;;13.88;7.68;;;8.30;99.90;;;;;;5056717;28;20397;-52
2022/09/28 04:11:19;;;;;;;14.77;7.07;;;8.30;99.90;;;;;;5057083;28;20025;-50
2022/09/28 04:13:48;;;;;;;12.27;7.32;;;8.30;99.90;;;;;;5057460;28;20553;-51
2022/09/28 04:16:14;;;;;;;15.88;6.47;;;8.30;99.90;;;;;;5057200;28;20028;-55
2022/09/28 04:18:41;;;;;;;12.75;6.60;;;8.30;99.90;;;;;;5057837;28;20033;-57
2022/09/28 04:21:10;;;;;;;13.27;6.72;;;8.30;99.90;;;;;;5057112;28;20813;-62
2022/09/28 04:23:37;;;;;;;13.40;6.82;;;8.30;99.90;;;;;;5057783;28;20485;-58
2022/09/28 04:26:05;;;;;;;16.52;7.65;;;8.30;99.90;;;;;;5057511;28;20029;-58
2022/09/28 04:31:20;;;;;;;13.32;7.88;;;8.20;99.90;;;;;;5056732;28;20550;-55
2022/09/28 04:33:46;;;;;;;12.55;6.57;;;8.20;99.90;;;;;;5056617;28;20401;-64
2022/09/28 04:36:12;;;;;;;12.45;6.88;;;8.20;99.90;;;;;;5055740;28;20017;-65
2022/09/28 04:38:38;;;;;;;13.48;7.70;;;8.20;99.90;;;;;;5057108;27;20025;-64
2022/09/28 04:41:04;;;;;;;13.15;6.38;;;8.20;99.90;;;;;;5057109;27;20618;-64
2022/09/28 04:43:30;;;;;;;13.70;7.20;;;8.10;99.90;;;;;;5056326;28;20028;-65
2022/09/28 04:46:00;;;;;;;13.77;7.30;;;8.10;99.90;;;;;;5057556;28;20127;-61
2022/09/28 04:48:26;;;;;;;12.52;6.70;;;8.10;99.90;;;;;;5056805;28;20025;-67
2022/09/28 04:50:53;;;;;;;11.93;6.10;;;8.00;99.90;;;;;;5056682;28;20075;-65
2022/09/28 04:53:19;;;;;;;11.95;6.30;;;8.00;99.90;;;;;;5056018;28;20063;-59
2022/09/28 04:55:58;;;;;;;12.50;6.63;;;8.00;99.90;;;;;;5057216;28;20029;-56
2022/09/28 04:58:24;;;;;;;10.05;5.93;;;7.90;99.90;;;;;;5056482;28;20075;-60
2022/09/28 05:00:50;;;;;;;9.40;5.75;;;7.90;99.90;;;;;;5057303;28;20067;-52
2022/09/28 05:03:16;;;;;;;11.00;6.40;;;7.80;99.90;;;;;;5055977;28;20032;-59
2022/09/28 05:05:46;;;;;;;12.80;7.30;;;7.80;99.90;;;;;;5056875;28;20017;-52
2022/09/28 05:08:11;;;;;;;10.70;6.03;;;7.70;99.90;;;;;;5058432;28;20029;-55
2022/09/28 05:10:40;;;;;;;13.63;6.13;;;7.60;99.90;;;;;;5055293;28;20047;-50
2022/09/28 05:13:07;;;;;;;11.77;5.55;;;7.60;99.90;;;;;;5056699;28;20028;-54
2022/09/28 05:15:37;;;;;;;10.18;5.53;;;7.60;99.90;;;;;;5054634;28;20025;-60
2022/09/28 05:18:03;;;;;;;12.10;6.57;;;7.50;99.90;;;;;;5052151;28;20104;-54
2022/09/28 05:20:29;;;;;;;10.93;5.57;;;7.50;99.90;;;;;;5052976;28;20021;-55
2022/09/28 05:22:55;;;;;;;11.77;5.82;;;7.40;99.90;;;;;;5050770;28;20458;-62
2022/09/28 05:25:21;;;;;;;10.48;5.03;;;7.40;99.90;;;;;;5051010;28;20026;-54
2022/09/28 05:27:47;;;;;;;11.07;5.30;;;7.30;99.90;;;;;;5054940;28;20028;-53
2022/09/28 05:30:13;;;;;;;9.70;4.95;;;7.30;99.90;;;;;;5049536;28;20112;-51
2022/09/28 05:32:43;;;;;;;9.50;5.45;;;7.30;99.90;;;;;;5050626;28;20037;-60
2022/09/28 05:35:10;;;;;;;9.98;5.20;;;7.30;99.90;;;;;;5052088;28;20035;-52
2022/09/28 05:37:36;;;;;;;11.55;5.43;;;7.40;99.90;;;;;;5051717;28;20056;-57
2022/09/28 05:40:02;;;;;;;12.18;5.72;;;7.40;99.90;;;;;;5052466;28;20028;-56
2022/09/28 05:42:29;;;;;;;11.38;5.53;;;7.40;99.90;;;;;;5051466;28;20025;-56
2022/09/28 05:44:54;;;;;;;8.77;5.05;;;7.40;99.90;;;;;;5052961;28;20054;-54
2022/09/28 05:47:21;;;;;;;9.85;5.05;;;7.40;99.90;;;;;;5052356;28;20025;-53
2022/09/28 05:49:46;;;;;;;9.45;5.15;;;7.40;99.90;;;;;;5053053;28;20528;-51
2022/09/28 05:52:12;;;;;;;10.50;5.72;;;7.30;99.90;;;;;;5052686;28;20041;-56
2022/09/28 05:54:38;;;;;;;12.63;5.78;;;7.30;99.90;;;;;;5053999;28;20068;-67
2022/09/28 05:57:05;;;;;;;10.27;5.63;;;7.30;99.90;;;;;;5062926;28;20019;-52
2022/09/28 05:59:30;;;;;;;11.23;5.80;;;7.20;99.90;;;;;;5055695;28;20029;-59
2022/09/28 06:01:56;;;;;;;10.13;5.13;;;7.20;99.90;;;;;;5053426;28;20384;-53
2022/09/28 06:04:21;;;;;;;9.45;5.28;;;7.20;99.90;;;;;;5050936;28;20021;-52
2022/09/28 06:06:47;;;;;;;11.25;5.20;;;7.20;99.90;;;;;;5052490;28;20426;-51
2022/09/28 06:09:13;;;;;;;9.20;4.75;;;7.20;99.90;;;;;;5062168;28;20020;-53
2022/09/28 06:11:38;;;;;;;8.95;4.78;;;7.10;99.90;;;;;;5057955;28;20116;-51
2022/09/28 06:14:04;;;;;;;7.75;4.40;;;7.10;99.90;;;;;;5055197;28;20099;-51
2022/09/28 06:16:29;;;;;;;6.53;4.13;;;7.10;99.90;;;;;;5052778;28;20025;-52
2022/09/28 06:18:56;;;;;;;9.50;4.55;;;7.10;99.90;;;;;;5052885;28;20021;-52
2022/09/28 06:21:22;;;;;;;7.57;4.25;;;7.10;99.90;;;;;;5051729;28;20037;-56
2022/09/28 06:23:47;;;;;;;8.93;4.40;;;7.10;99.90;;;;;;5046724;28;20036;-55
2022/09/28 06:26:13;;;;;;;11.52;5.13;;;7.10;99.90;;;;;;5045394;28;20033;-56
2022/09/28 06:28:38;;;;;;;8.57;5.47;;;7.20;99.90;;;;;;5052086;28;20082;-55
2022/09/28 06:31:04;;;;;;;13.52;5.85;;;7.10;99.90;;;;;;5051938;28;20064;-49
2022/09/28 06:33:29;;;;;;;9.27;4.53;;;7.10;99.90;;;;;;5051170;28;20051;-59
2022/09/28 06:35:58;;;;;;;10.48;5.68;;;7.10;99.90;;;;;;5047258;28;20036;-60
2022/09/28 06:38:23;;;;;;;7.82;4.43;;;7.20;99.90;;;;;;5050508;28;20688;-64
2022/09/28 06:40:49;;;;;;;9.23;4.95;;;7.20;99.90;;;;;;5050805;28;20025;-53
2022/09/28 06:43:15;;;;;;;9.15;4.72;;;7.20;99.90;;;;;;5050168;28;20020;-52
2022/09/28 06:45:41;;;;;;;10.32;5.45;;;7.20;99.90;;;;;;5050937;28;20076;-57
2022/09/28 06:48:08;;;;;;;9.07;4.55;;;7.30;99.90;;;;;;5049275;28;20029;-57
2022/09/28 06:50:36;;;;;;;9.30;4.82;;;7.30;99.90;;;;;;5049595;28;20028;-59
2022/09/28 06:53:05;;;;;;;9.95;5.15;;;7.40;99.90;;;;;;5052713;28;20045;-62
2022/09/28 06:55:32;;;;;;;8.15;5.10;;;7.40;99.90;;;;;;5049867;28;20064;-54
2022/09/28 06:58:05;;;;;;;9.27;5.00;;;7.50;99.90;;;;;;5049423;28;20033;-65
2022/09/28 07:00:34;;;;;;;8.43;4.38;;;7.50;99.90;;;;;;5050549;28;20497;-58
2022/09/28 07:03:06;;;;;;;8.73;4.65;;;7.60;99.90;;;;;;5051116;28;20116;-59
2022/09/28 07:05:35;;;;;;;10.40;4.88;;;7.60;99.90;;;;;;5050505;28;20377;-63
2022/09/28 07:08:02;;;;;;;11.13;5.40;;;7.70;99.90;;;;;;5050060;28;20103;-64
2022/09/28 07:10:29;;;;;;;9.60;5.03;;;7.80;99.90;;;;;;5050219;28;20061;-57
2022/09/28 07:12:56;;;;;;;8.50;4.53;;;7.80;99.90;;;;;;5048696;28;20362;-61
2022/09/28 07:15:22;;;;;;;7.72;4.40;;;7.90;99.90;;;;;;5049912;28;20104;-61
2022/09/28 07:17:48;;;;;;;8.82;4.65;;;8.00;99.90;;;;;;5049296;28;20029;-57
2022/09/28 07:20:14;;;;;;;7.80;4.60;;;8.00;99.90;;;;;;5035415;28;20500;-54
2022/09/28 07:22:40;;;;;;;10.05;4.50;;;8.10;99.90;;;;;;5037811;28;20507;-55
2022/09/28 07:25:06;;;;;;;7.97;4.18;;;8.10;99.90;;;;;;5049548;28;20460;-59
2022/09/28 07:27:32;;;;;;;8.45;4.30;;;8.10;99.90;;;;;;5049428;28;20100;-56
2022/09/28 07:29:58;;;;;;;7.25;3.70;;;8.20;99.90;;;;;;5049159;28;20032;-52
2022/09/28 07:32:26;;;;;;;8.80;4.82;;;8.20;99.90;;;;;;5048992;28;20044;-52
2022/09/28 07:34:52;;;;;;;7.28;3.88;;;8.30;99.90;;;;;;5049258;28;20059;-54
2022/09/28 07:37:18;;;;;;;8.25;3.65;;;8.40;99.90;;;;;;5049540;28;20113;-54
2022/09/28 07:42:46;;;;;;;6.65;3.60;;;8.50;99.90;;;;;;5025350;28;20386;-55
2022/09/28 07:45:11;;;;;;;7.00;4.18;;;8.60;99.90;;;;;;5028123;28;20026;-49
2022/09/28 07:47:37;;;;;;;11.10;4.03;;;8.60;99.90;;;;;;5029719;28;20044;-54
2022/09/28 07:50:03;;;;;;;7.82;3.53;;;8.70;99.90;;;;;;5035284;28;20067;-49
2022/09/28 07:52:28;;;;;;;6.75;4.20;;;8.80;99.90;;;;;;5048929;28;20037;-53
2022/09/28 07:54:54;;;;;;;7.00;3.70;;;8.90;99.90;;;;;;5049541;28;20045;-50
2022/09/28 07:57:22;;;;;;;7.50;3.85;;;8.90;99.90;;;;;;5049372;28;20048;-59
2022/09/28 07:59:48;;;;;;;6.90;3.47;;;9.00;99.90;;;;;;5048916;28;20458;-50
2022/09/28 08:02:15;;;;;;;7.18;3.17;;;9.00;99.90;;;;;;5049158;28;20087;-53
2022/09/28 08:04:40;;;;;;;6.03;2.92;;;9.10;99.90;;;;;;5051625;28;20036;-51
2022/09/28 08:07:10;;;;;;;6.28;3.67;;;9.10;99.90;;;;;;5048458;28;20021;-52
2022/09/28 08:09:36;;;;;;;7.55;3.20;;;9.20;99.90;;;;;;5049558;28;20029;-48
2022/09/28 08:12:03;;;;;;;4.82;2.65;;;9.30;99.90;;;;;;5052394;28;20025;-54
2022/09/28 08:14:33;;;;;;;8.13;3.08;;;9.40;99.90;;;;;;5046858;28;20071;-51
2022/09/28 08:17:02;;;;;;;4.50;2.88;;;9.50;99.90;;;;;;5049674;28;20025;-54
2022/09/28 08:22:12;;;;;;;4.32;2.47;;;9.60;99.90;;;;;;5030320;28;20051;-53
2022/09/28 08:24:38;;;;;;;4.60;2.22;;;9.70;99.90;;;;;;5046870;28;20025;-56
2022/09/28 08:27:03;;;;;;;3.08;1.77;;;9.80;99.90;;;;;;5048934;28;20493;-48
2022/09/28 08:29:30;;;;;;;3.85;1.90;;;9.90;99.90;;;;;;5048781;28;20409;-47
2022/09/28 08:31:58;;;;;;;3.58;1.90;;;10.00;99.90;;;;;;5049606;28;20040;-57
2022/09/28 08:34:24;;;;;;;3.58;1.70;;;10.00;99.90;;;;;;5051722;28;20052;-53
2022/09/28 08:36:49;;;;;;;2.92;1.52;;;10.10;99.90;;;;;;5050366;28;20059;-51
2022/09/28 08:39:15;;;;;;;3.13;1.65;;;10.20;99.90;;;;;;5049505;28;20092;-54
2022/09/28 08:41:46;;;;;;;2.28;1.60;;;10.30;99.90;;;;;;5049008;28;20029;-50
2022/09/28 08:44:27;;;;;;;4.20;1.77;;;10.30;99.90;;;;;;5049139;28;20032;-49
2022/09/28 08:47:05;;;;;;;2.42;1.40;;;10.40;99.90;;;;;;5049751;28;20436;-56
2022/09/28 08:49:35;;;;;;;2.97;1.10;;;10.50;99.90;;;;;;5048674;28;20036;-58
2022/09/28 08:52:04;;;;;;;1.63;0.73;;;10.50;99.90;;;;;;5048101;28;20036;-46
2022/09/28 08:54:47;;;;;;;2.45;0.80;;;10.60;99.90;;;;;;5050716;28;20041;-54
2022/09/28 08:57:16;;;;;;;0.82;0.70;;;10.70;99.90;;;;;;5046649;28;20484;-51
2022/09/28 08:59:55;;;;;;;0.98;0.50;;;10.90;99.90;;;;;;5052312;28;20025;-51
2022/09/28 09:02:24;;;;;;;1.05;0.73;;;11.00;99.90;;;;;;5051639;28;20047;-48
2022/09/28 09:04:51;;;;;;;1.80;0.80;;;11.20;99.90;;;;;;5052540;28;20116;-63
2022/09/28 09:07:25;;;;;;;1.60;0.80;;;11.40;99.90;;;;;;5032570;28;20036;-54
2022/09/28 09:10:20;;;;;;;3.00;0.90;;;11.60;99.90;;;;;;5036930;28;20573;-54
2022/09/28 09:13:02;;;;;;;0.60;0.60;;;11.70;99.90;;;;;;5047489;28;20056;-55
2022/09/28 09:15:47;;;;;;;1.42;0.70;;;11.80;99.90;;;;;;5059793;28;20031;-52
2022/09/28 09:18:26;;;;;;;0.70;0.60;;;12.00;99.90;;;;;;5043268;28;20017;-53
2022/09/28 09:21:01;;;;;;;0.63;0.60;;;12.20;99.90;;;;;;5052383;28;20029;-53
2022/09/28 09:23:47;;;;;;;0.50;0.50;;;12.20;99.30;;;;;;5052284;28;20041;-52
2022/09/28 09:26:24;;;;;;;1.73;0.75;;;12.20;99.20;;;;;;5052061;28;20509;-53
2022/09/28 09:29:27;;;;;;;1.42;0.60;;;12.10;99.20;;;;;;5049711;28;20017;-57
2022/09/28 09:32:08;;;;;;;3.30;0.50;;;12.20;99.20;;;;;;5049646;28;20037;-55
2022/09/28 09:34:37;;;;;;;1.95;0.50;;;12.20;99.00;;;;;;5053087;28;20044;-57
2022/09/28 09:37:34;;;;;;;2.85;0.60;;;12.30;97.40;;;;;;5052741;28;20031;-52
2022/09/28 09:40:23;;;;;;;0.68;0.50;;;12.40;96.60;;;;;;5033024;28;20064;-63
2022/09/28 09:43:31;;;;;;;0.47;0.40;;;12.40;96.60;;;;;;5046366;28;20031;-55
2022/09/28 09:45:57;;;;;;;0.40;0.40;;;12.50;95.80;;;;;;5052586;28;20036;-53
2022/09/28 09:48:33;;;;;;;0.50;0.45;;;12.60;96.10;;;;;;5053490;28;20036;-51
2022/09/28 09:51:05;;;;;;;0.85;0.50;;;12.60;96.10;;;;;;5051487;28;20033;-50
2022/09/28 09:53:58;;;;;;;0.57;0.50;;;12.60;95.40;;;;;;5048235;28;20525;-54
2022/09/28 09:56:37;;;;;;;0.85;0.77;;;12.50;95.50;;;;;;5043818;28;20067;-55
2022/09/28 09:59:12;;;;;;;0.90;0.43;;;12.60;95.40;;;;;;5051480;28;20099;-56
2022/09/28 10:01:40;;;;;;;1.70;0.47;;;12.50;93.40;;;;;;5051514;28;20033;-53
2022/09/28 10:04:19;;;;;;;3.20;0.95;;;12.50;93.20;;;;;;5050615;28;20032;-55
2022/09/28 10:06:48;;;;;;;0.57;0.43;;;12.50;93.20;;;;;;5052468;28;20493;-54
2022/09/28 10:09:41;;;;;;;0.32;0.32;;;12.50;93.70;;;;;;5052136;28;20021;-53
2022/09/28 10:12:10;;;;;;;1.27;0.50;;;12.60;93.50;;;;;;5052520;28;20040;-56
2022/09/28 10:14:36;;;;;;;0.77;0.50;;;12.70;92.80;;;;;;5051941;28;20175;-55
2022/09/28 10:17:02;;;;;;;1.58;0.45;;;12.70;93.00;;;;;;5052648;28;20108;-56
2022/09/28 10:19:33;;;;;;;0.40;0.40;;;12.80;93.10;;;;;;5052391;28;20048;-53
2022/09/28 10:22:03;;;;;;;1.05;0.40;;;12.90;93.30;;;;;;5052900;28;20028;-54
2022/09/28 10:24:40;;;;;;;1.27;0.50;;;12.90;93.80;;;;;;5052325;28;20021;-51
2022/09/28 10:27:30;;;;;;;1.65;0.40;;;13.00;93.40;;;;;;5051981;28;20497;-56
2022/09/28 10:30:01;;;;;;;2.03;0.60;;;13.10;93.60;;;;;;5049304;28;20079;-55
2022/09/28 10:32:39;;;;;;;0.47;0.37;;;13.20;92.20;;;;;;5052355;28;20041;-53
2022/09/28 10:35:28;;;;;;;0.40;0.40;;;13.30;92.10;;;;;;5051758;28;20166;-55
2022/09/28 10:37:56;;;;;;;0.88;0.55;;;13.40;92.20;;;;;;5052502;28;20100;-49
2022/09/28 10:40:46;;;;;;;2.17;0.50;;;13.50;92.30;;;;;;5052327;28;20021;-54
2022/09/28 10:43:14;;;;;;;1.75;0.47;;;13.50;91.50;;;;;;5049533;28;20033;-55
2022/09/28 10:45:40;;;;;;;1.00;0.60;;;13.50;90.80;;;;;;5051490;28;20495;-59
2022/09/28 10:48:16;;;;;;;1.38;0.40;;;13.60;90.90;;;;;;5050193;28;20025;-58
2022/09/28 10:50:42;;;;;;;0.60;0.50;;;13.70;90.10;;;;;;5052254;28;20078;-65
2022/09/28 10:53:15;;;;;;;0.55;0.43;;;13.80;90.20;;;;;;5051939;28;20067;-53
2022/09/28 10:55:40;;;;;;;0.40;0.40;;;13.90;89.30;;;;;;5051510;28;20040;-62
2022/09/28 10:58:38;;;;;;;1.27;0.52;;;13.80;89.20;;;;;;5052448;28;20373;-61
2022/09/28 11:01:17;;;;;;;0.80;0.50;;;13.80;89.70;;;;;;5052090;28;20025;-54
2022/09/28 11:04:06;;;;;;;0.55;0.55;;;13.90;89.50;;;;;;5051487;28;20025;-59
2022/09/28 11:06:40;;;;;;;0.45;0.35;;;14.00;90.20;;;;;;5051680;28;20309;-60
2022/09/28 11:09:41;;;;;;;0.50;0.50;;;14.10;89.40;;;;;;5049026;28;20485;-57
2022/09/28 11:12:14;;;;;;;0.55;0.40;;;14.20;89.90;;;;;;5062080;28;20103;-57
2022/09/28 11:14:42;;;;;;;0.50;0.50;;;14.20;89.80;;;;;;5051289;28;20378;-61
2022/09/28 11:17:26;;;;;;;0.55;0.50;;;14.10;89.10;;;;;;5050704;28;20466;-57
2022/09/28 11:19:57;;;;;;;0.45;0.45;;;14.00;89.60;;;;;;5050424;28;20499;-56
2022/09/28 11:22:32;;;;;;;0.50;0.40;;;14.10;89.70;;;;;;5050810;28;20082;-60
2022/09/28 11:25:16;;;;;;;1.02;0.60;;;14.20;89.30;;;;;;5051485;28;20016;-57
2022/09/28 11:27:50;;;;;;;0.57;0.50;;;14.40;86.80;;;;;;5051704;28;20043;-59
2022/09/28 11:30:22;;;;;;;1.30;0.40;;;14.60;86.80;;;;;;5050321;28;20078;-54
2022/09/28 11:32:49;;;;;;;1.58;0.50;;;14.80;87.10;;;;;;5051398;28;20177;-56
2022/09/28 11:35:26;;;;;;;0.68;0.63;;;14.90;86.30;;;;;;5048911;28;20017;-61
2022/09/28 11:38:01;;;;;;;0.70;0.40;;;15.00;86.10;;;;;;5051410;28;20032;-61
2022/09/28 11:40:44;;;;;;;0.35;0.30;;;15.00;84.50;;;;;;5050940;28;20025;-55
2022/09/28 11:43:22;;;;;;;0.38;0.30;;;15.00;83.50;;;;;;5050384;28;20029;-57
2022/09/28 11:45:58;;;;;;;1.00;0.43;;;15.10;83.40;;;;;;5051285;28;20074;-54
2022/09/28 11:48:28;;;;;;;1.15;0.38;;;15.00;82.50;;;;;;5049565;28;20032;-58
2022/09/28 11:51:00;;;;;;;0.30;0.30;;;14.80;82.20;;;;;;5050753;28;20546;-53
2022/09/28 11:53:44;;;;;;;0.28;0.28;;;14.80;82.00;;;;;;5050819;28;20112;-55
2022/09/28 11:56:16;;;;;;;2.75;0.60;;;14.70;82.80;;;;;;5050602;28;20048;-56
2022/09/28 11:58:52;;;;;;;1.02;0.32;;;14.70;83.50;;;;;;5051129;28;20017;-55
2022/09/28 12:01:41;;;;;;;0.40;0.40;;;14.70;83.60;;;;;;5050552;28;20036;-54
2022/09/28 12:04:15;;;;;;;0.57;0.30;;;14.70;83.80;;;;;;5050519;28;20096;-55
2022/09/28 12:06:50;;;;;;;0.40;0.40;;;14.70;84.00;;;;;;5050088;28;20056;-54
2022/09/28 12:09:34;;;;;;;1.05;0.50;;;14.60;84.60;;;;;;5050321;28;20029;-50
2022/09/28 12:12:06;;;;;;;1.63;0.40;;;14.50;84.30;;;;;;5050203;28;20031;-56
2022/09/28 12:14:37;;;;;;;0.30;0.30;;;14.50;82.90;;;;;;5050312;28;20061;-55
2022/09/28 12:17:17;;;;;;;0.38;0.38;;;14.50;81.70;;;;;;5051002;28;20017;-54
2022/09/28 12:20:19;;;;;;;1.37;0.40;;;14.50;82.40;;;;;;5050918;28;20107;-55
2022/09/28 12:22:54;;;;;;;0.50;0.50;;;14.60;81.00;;;;;;5047034;28;20279;-52
2022/09/28 12:25:22;;;;;;;3.10;0.50;;;14.70;80.70;;;;;;5049544;28;20033;-55
2022/09/28 12:27:52;;;;;;;0.45;0.40;;;14.90;80.90;;;;;;5053120;28;20078;-55
2022/09/28 12:30:20;;;;;;;0.20;0.20;;;15.10;80.70;;;;;;5054284;28;20025;-59
2022/09/28 12:32:52;;;;;;;0.50;0.50;;;15.30;80.20;;;;;;5054083;28;20025;-53
2022/09/28 12:35:35;;;;;;;1.23;0.30;;;15.30;77.50;;;;;;5054066;28;20056;-54
2022/09/28 12:38:15;;;;;;;1.45;0.38;;;15.20;78.40;;;;;;5054549;28;20028;-50
2022/09/28 12:40:58;;;;;;;0.47;0.40;;;15.10;79.50;;;;;;5053985;28;20032;-54
2022/09/28 12:43:54;;;;;;;0.35;0.35;;;15.00;80.40;;;;;;5053182;28;20025;-51
2022/09/28 12:46:38;;;;;;;0.38;0.30;;;15.00;81.20;;;;;;5053280;28;20486;-53
2022/09/28 12:49:31;;;;;;;0.25;0.25;;;14.90;81.20;;;;;;5054652;28;20101;-56
2022/09/28 12:52:06;;;;;;;0.60;0.40;;;14.80;80.90;;;;;;5055065;28;20025;-56
2022/09/28 12:54:40;;;;;;;1.92;0.30;;;14.70;81.30;;;;;;5053397;28;20056;-56
2022/09/28 12:57:14;;;;;;;0.52;0.30;;;14.60;82.10;;;;;;5054031;28;20536;-56
2022/09/28 13:00:07;;;;;;;1.00;0.30;;;14.50;82.30;;;;;;5053884;28;20434;-53
2022/09/28 13:02:47;;;;;;;0.43;0.30;;;14.50;82.30;;;;;;5054273;28;20031;-57
2022/09/28 13:05:44;;;;;;;0.45;0.40;;;14.40;81.20;;;;;;5053969;28;20087;-61
2022/09/28 13:08:21;;;;;;;1.00;0.30;;;14.40;81.00;;;;;;5053649;28;20029;-55
2022/09/28 13:11:07;;;;;;;0.43;0.30;;;14.30;81.30;;;;;;5054135;28;20418;-63
2022/09/28 13:13:51;;;;;;;0.30;0.30;;;14.30;81.80;;;;;;5052280;28;20037;-64
2022/09/28 13:16:29;;;;;;;0.40;0.40;;;14.40;82.30;;;;;;5053449;28;20033;-65
2022/09/28 13:19:18;;;;;;;0.50;0.40;;;14.40;82.40;;;;;;5053210;28;20065;-53
2022/09/28 13:21:44;;;;;;;0.35;0.30;;;14.50;82.00;;;;;;5053418;28;20071;-59